sensor_id;sensor_type;location;lat;lon;timestamp;temperature;humidity
14053;DHT22;7101;51.600;7.310;2024-01-11T00:00:29;-5.10;1.00
14053;DHT22;7101;51.600;7.310;2024-01-11T00:02:56;-5.10;1.00
14053;DHT22;7101;51.600;7.310;2024-01-11T00:05:23;-5.10;1.00
14053;DHT22;7101;51.600;7.310;2024-01-11T00:07:51;-5.20;99.90
14053;DHT22;7101;51.600;7.310;2024-01-11T00:10:18;-5.20;1.00
14053;DHT22;7101;51.600;7.310;2024-01-11T00:12:45;-5.40;1.00
14053;DHT22;7101;51.600;7.310;2024-01-11T00:15:13;-5.50;1.00
14053;DHT22;7101;51.600;7.310;2024-01-11T00:17:39;-5.50;1.00
14053;DHT22;7101;51.600;7.310;2024-01-11T00:20:07;-5.60;1.00
14053;DHT22;7101;51.600;7.310;2024-01-11T00:22:34;-5.50;1.00
14053;DHT22;7101;51.600;7.310;2024-01-11T00:25:03;-5.70;1.00
14053;DHT22;7101;51.600;7.310;2024-01-11T00:27:30;-5.90;1.00
14053;DHT22;7101;51.600;7.310;2024-01-11T00:29:56;-6.00;1.00
14053;DHT22;7101;51.600;7.310;2024-01-11T00:32:23;-6.10;1.00
14053;DHT22;7101;51.600;7.310;2024-01-11T00:34:51;-6.10;1.60
14053;DHT22;7101;51.600;7.310;2024-01-11T00:37:18;-6.10;58.90
14053;DHT22;7101;51.600;7.310;2024-01-11T00:39:45;-6.10;99.90
14053;DHT22;7101;51.600;7.310;2024-01-11T00:42:14;-6.20;99.90
14053;DHT22;7101;51.600;7.310;2024-01-11T00:44:40;-6.30;1.00
14053;DHT22;7101;51.600;7.310;2024-01-11T00:47:07;-6.40;1.00
14053;DHT22;7101;51.600;7.310;2024-01-11T00:49:36;-6.40;1.00
14053;DHT22;7101;51.600;7.310;2024-01-11T00:52:04;-6.40;1.00
14053;DHT22;7101;51.600;7.310;2024-01-11T00:54:31;-6.50;1.00
14053;DHT22;7101;51.600;7.310;2024-01-11T00:56:57;-6.50;1.00
14053;DHT22;7101;51.600;7.310;2024-01-11T00:59:25;-6.60;1.00
14053;DHT22;7101;51.600;7.310;2024-01-11T01:01:52;-6.60;1.00
14053;DHT22;7101;51.600;7.310;2024-01-11T01:04:19;-6.60;1.00
14053;DHT22;7101;51.600;7.310;2024-01-11T01:06:46;-6.80;1.00
14053;DHT22;7101;51.600;7.310;2024-01-11T01:09:13;-6.80;1.00
14053;DHT22;7101;51.600;7.310;2024-01-11T01:11:40;-6.90;1.00
14053;DHT22;7101;51.600;7.310;2024-01-11T01:14:07;-6.90;1.00
14053;DHT22;7101;51.600;7.310;2024-01-11T01:16:35;-6.90;1.00
14053;DHT22;7101;51.600;7.310;2024-01-11T01:19:02;-7.00;1.00
14053;DHT22;7101;51.600;7.310;2024-01-11T01:21:29;-7.00;99.90
14053;DHT22;7101;51.600;7.310;2024-01-11T01:23:56;-6.90;99.90
14053;DHT22;7101;51.600;7.310;2024-01-11T01:26:23;-6.70;99.90
14053;DHT22;7101;51.600;7.310;2024-01-11T01:28:50;-6.70;99.90
14053;DHT22;7101;51.600;7.310;2024-01-11T01:31:17;-6.60;99.90
14053;DHT22;7101;51.600;7.310;2024-01-11T01:33:45;-6.60;99.90
14053;DHT22;7101;51.600;7.310;2024-01-11T01:36:12;-6.70;58.10
14053;DHT22;7101;51.600;7.310;2024-01-11T01:38:38;-6.70;1.00
14053;DHT22;7101;51.600;7.310;2024-01-11T01:41:05;-6.80;1.00
14053;DHT22;7101;51.600;7.310;2024-01-11T01:43:33;-6.80;1.00
14053;DHT22;7101;51.600;7.310;2024-01-11T01:46:00;-6.80;1.00
14053;DHT22;7101;51.600;7.310;2024-01-11T01:48:27;-6.90;1.00
14053;DHT22;7101;51.600;7.310;2024-01-11T01:50:55;-6.90;1.00
14053;DHT22;7101;51.600;7.310;2024-01-11T01:53:24;-6.90;99.80
14053;DHT22;7101;51.600;7.310;2024-01-11T01:55:54;-6.90;99.90
14053;DHT22;7101;51.600;7.310;2024-01-11T01:58:21;-6.90;99.90
14053;DHT22;7101;51.600;7.310;2024-01-11T02:00:50;-6.90;99.90
14053;DHT22;7101;51.600;7.310;2024-01-11T02:03:17;-6.90;99.90
14053;DHT22;7101;51.600;7.310;2024-01-11T02:05:44;-6.90;99.90
14053;DHT22;7101;51.600;7.310;2024-01-11T02:08:16;-6.80;99.90
14053;DHT22;7101;51.600;7.310;2024-01-11T02:10:43;-6.70;99.90
14053;DHT22;7101;51.600;7.310;2024-01-11T02:13:11;-6.70;99.90
14053;DHT22;7101;51.600;7.310;2024-01-11T02:15:38;-6.70;99.90
14053;DHT22;7101;51.600;7.310;2024-01-11T02:18:05;-6.70;99.90
14053;DHT22;7101;51.600;7.310;2024-01-11T02:20:32;-6.70;99.90
14053;DHT22;7101;51.600;7.310;2024-01-11T02:23:05;-6.70;99.90
14053;DHT22;7101;51.600;7.310;2024-01-11T02:25:33;-6.70;99.90
14053;DHT22;7101;51.600;7.310;2024-01-11T02:28:00;-6.70;93.20
14053;DHT22;7101;51.600;7.310;2024-01-11T02:30:27;-6.70;71.80
14053;DHT22;7101;51.600;7.310;2024-01-11T02:32:54;-6.60;91.30
14053;DHT22;7101;51.600;7.310;2024-01-11T02:35:21;-6.70;57.30
14053;DHT22;7101;51.600;7.310;2024-01-11T02:37:48;-6.50;99.90
14053;DHT22;7101;51.600;7.310;2024-01-11T02:40:15;-6.40;1.00
14053;DHT22;7101;51.600;7.310;2024-01-11T02:42:43;-6.30;1.00
14053;DHT22;7101;51.600;7.310;2024-01-11T02:45:11;-6.40;1.00
14053;DHT22;7101;51.600;7.310;2024-01-11T02:47:38;-6.50;1.00
14053;DHT22;7101;51.600;7.310;2024-01-11T02:50:05;-6.60;1.00
14053;DHT22;7101;51.600;7.310;2024-01-11T02:52:33;-6.70;1.00
14053;DHT22;7101;51.600;7.310;2024-01-11T02:55:00;-6.70;1.00
14053;DHT22;7101;51.600;7.310;2024-01-11T02:57:26;-6.50;1.00
14053;DHT22;7101;51.600;7.310;2024-01-11T02:59:54;-6.40;1.00
14053;DHT22;7101;51.600;7.310;2024-01-11T03:02:21;-6.30;1.00
14053;DHT22;7101;51.600;7.310;2024-01-11T03:04:48;-6.30;1.00
14053;DHT22;7101;51.600;7.310;2024-01-11T03:07:15;-6.40;1.00
14053;DHT22;7101;51.600;7.310;2024-01-11T03:09:41;-6.40;1.00
14053;DHT22;7101;51.600;7.310;2024-01-11T03:12:08;-6.50;1.00
14053;DHT22;7101;51.600;7.310;2024-01-11T03:14:35;-6.60;1.00
14053;DHT22;7101;51.600;7.310;2024-01-11T03:17:04;-6.70;1.00
14053;DHT22;7101;51.600;7.310;2024-01-11T03:19:31;-6.80;1.00
14053;DHT22;7101;51.600;7.310;2024-01-11T03:21:57;-6.80;1.00
14053;DHT22;7101;51.600;7.310;2024-01-11T03:24:28;-6.70;1.00
14053;DHT22;7101;51.600;7.310;2024-01-11T03:26:55;-6.60;1.00
14053;DHT22;7101;51.600;7.310;2024-01-11T03:29:22;-6.60;1.00
14053;DHT22;7101;51.600;7.310;2024-01-11T03:31:49;-6.50;1.00
14053;DHT22;7101;51.600;7.310;2024-01-11T03:34:17;-6.40;1.00
14053;DHT22;7101;51.600;7.310;2024-01-11T03:36:44;-6.30;1.00
14053;DHT22;7101;51.600;7.310;2024-01-11T03:39:10;-6.20;1.00
14053;DHT22;7101;51.600;7.310;2024-01-11T03:41:37;-6.20;1.00
14053;DHT22;7101;51.600;7.310;2024-01-11T03:44:09;-6.20;1.00
14053;DHT22;7101;51.600;7.310;2024-01-11T03:46:36;-6.30;1.00
14053;DHT22;7101;51.600;7.310;2024-01-11T03:49:02;-6.20;1.00
14053;DHT22;7101;51.600;7.310;2024-01-11T03:51:30;-6.30;1.00
14053;DHT22;7101;51.600;7.310;2024-01-11T03:53:57;-6.30;1.00
14053;DHT22;7101;51.600;7.310;2024-01-11T03:56:24;-6.30;1.00
14053;DHT22;7101;51.600;7.310;2024-01-11T03:58:51;-6.30;1.00
14053;DHT22;7101;51.600;7.310;2024-01-11T04:01:22;-6.30;1.00
14053;DHT22;7101;51.600;7.310;2024-01-11T04:03:48;-6.40;1.00
14053;DHT22;7101;51.600;7.310;2024-01-11T04:06:19;-6.50;1.00
14053;DHT22;7101;51.600;7.310;2024-01-11T04:08:49;-6.50;1.00
14053;DHT22;7101;51.600;7.310;2024-01-11T04:11:16;-6.60;1.00
14053;DHT22;7101;51.600;7.310;2024-01-11T04:13:43;-6.60;1.00
14053;DHT22;7101;51.600;7.310;2024-01-11T04:16:09;-6.60;1.00
14053;DHT22;7101;51.600;7.310;2024-01-11T04:18:37;-6.70;1.00
14053;DHT22;7101;51.600;7.310;2024-01-11T04:21:03;-6.80;1.00
14053;DHT22;7101;51.600;7.310;2024-01-11T04:23:30;-6.90;1.00
14053;DHT22;7101;51.600;7.310;2024-01-11T04:25:58;-6.80;1.00
14053;DHT22;7101;51.600;7.310;2024-01-11T04:28:25;-6.90;1.00
14053;DHT22;7101;51.600;7.310;2024-01-11T04:30:52;-7.00;1.00
14053;DHT22;7101;51.600;7.310;2024-01-11T04:33:19;-7.10;1.00
14053;DHT22;7101;51.600;7.310;2024-01-11T04:35:45;-7.20;1.00
14053;DHT22;7101;51.600;7.310;2024-01-11T04:38:12;-7.30;1.00
14053;DHT22;7101;51.600;7.310;2024-01-11T04:40:39;-7.40;1.00
14053;DHT22;7101;51.600;7.310;2024-01-11T04:43:07;-7.30;1.00
14053;DHT22;7101;51.600;7.310;2024-01-11T04:45:34;-7.20;1.00
14053;DHT22;7101;51.600;7.310;2024-01-11T04:48:01;-7.10;1.00
14053;DHT22;7101;51.600;7.310;2024-01-11T04:50:28;-7.00;1.00
14053;DHT22;7101;51.600;7.310;2024-01-11T04:52:55;-7.00;1.00
14053;DHT22;7101;51.600;7.310;2024-01-11T04:55:21;-6.90;1.00
14053;DHT22;7101;51.600;7.310;2024-01-11T04:57:48;-6.90;1.00
14053;DHT22;7101;51.600;7.310;2024-01-11T05:00:17;-6.80;1.00
14053;DHT22;7101;51.600;7.310;2024-01-11T05:02:44;-6.80;1.00
14053;DHT22;7101;51.600;7.310;2024-01-11T05:05:11;-6.70;1.00
14053;DHT22;7101;51.600;7.310;2024-01-11T05:07:37;-6.70;1.00
14053;DHT22;7101;51.600;7.310;2024-01-11T05:10:05;-6.70;1.00
14053;DHT22;7101;51.600;7.310;2024-01-11T05:12:32;-6.60;1.00
14053;DHT22;7101;51.600;7.310;2024-01-11T05:14:59;-6.60;1.00
14053;DHT22;7101;51.600;7.310;2024-01-11T05:17:27;-6.60;1.00
14053;DHT22;7101;51.600;7.310;2024-01-11T05:19:54;-6.60;1.00
14053;DHT22;7101;51.600;7.310;2024-01-11T05:22:21;-6.60;1.00
14053;DHT22;7101;51.600;7.310;2024-01-11T05:24:48;-6.60;1.00
14053;DHT22;7101;51.600;7.310;2024-01-11T05:27:15;-6.60;1.00
14053;DHT22;7101;51.600;7.310;2024-01-11T05:29:41;-6.60;1.00
14053;DHT22;7101;51.600;7.310;2024-01-11T05:32:08;-6.60;1.00
14053;DHT22;7101;51.600;7.310;2024-01-11T05:34:36;-6.70;1.00
14053;DHT22;7101;51.600;7.310;2024-01-11T05:37:03;-6.60;1.00
14053;DHT22;7101;51.600;7.310;2024-01-11T05:39:30;-6.70;1.00
14053;DHT22;7101;51.600;7.310;2024-01-11T05:41:57;-6.60;1.00
14053;DHT22;7101;51.600;7.310;2024-01-11T05:44:24;-6.60;1.00
14053;DHT22;7101;51.600;7.310;2024-01-11T05:46:51;-6.70;1.00
14053;DHT22;7101;51.600;7.310;2024-01-11T05:49:17;-6.60;1.00
14053;DHT22;7101;51.600;7.310;2024-01-11T05:51:46;-6.70;1.00
14053;DHT22;7101;51.600;7.310;2024-01-11T05:54:12;-6.80;1.00
14053;DHT22;7101;51.600;7.310;2024-01-11T05:56:39;-6.90;1.00
14053;DHT22;7101;51.600;7.310;2024-01-11T05:59:06;-6.90;1.00
14053;DHT22;7101;51.600;7.310;2024-01-11T06:01:32;-6.90;1.00
14053;DHT22;7101;51.600;7.310;2024-01-11T06:03:59;-7.00;1.00
14053;DHT22;7101;51.600;7.310;2024-01-11T06:06:27;-7.00;1.00
14053;DHT22;7101;51.600;7.310;2024-01-11T06:08:56;-7.10;1.00
14053;DHT22;7101;51.600;7.310;2024-01-11T06:11:23;-7.20;1.00
14053;DHT22;7101;51.600;7.310;2024-01-11T06:13:50;-7.20;1.00
14053;DHT22;7101;51.600;7.310;2024-01-11T06:16:19;-7.30;1.00
14053;DHT22;7101;51.600;7.310;2024-01-11T06:18:46;-7.40;1.00
14053;DHT22;7101;51.600;7.310;2024-01-11T06:21:13;-7.40;1.00
14053;DHT22;7101;51.600;7.310;2024-01-11T06:23:41;-7.40;1.00
14053;DHT22;7101;51.600;7.310;2024-01-11T06:26:09;-7.50;1.00
14053;DHT22;7101;51.600;7.310;2024-01-11T06:28:36;-7.70;1.00
14053;DHT22;7101;51.600;7.310;2024-01-11T06:31:03;-7.70;1.00
14053;DHT22;7101;51.600;7.310;2024-01-11T06:33:29;-7.80;1.00
14053;DHT22;7101;51.600;7.310;2024-01-11T06:35:58;-7.70;1.00
14053;DHT22;7101;51.600;7.310;2024-01-11T06:38:25;-7.70;1.00
14053;DHT22;7101;51.600;7.310;2024-01-11T06:40:52;-7.70;1.00
14053;DHT22;7101;51.600;7.310;2024-01-11T06:43:20;-7.70;1.00
14053;DHT22;7101;51.600;7.310;2024-01-11T06:45:47;-7.60;1.00
14053;DHT22;7101;51.600;7.310;2024-01-11T06:48:13;-7.70;1.00
14053;DHT22;7101;51.600;7.310;2024-01-11T06:50:40;-7.70;1.00
14053;DHT22;7101;51.600;7.310;2024-01-11T06:53:07;-7.80;1.00
14053;DHT22;7101;51.600;7.310;2024-01-11T06:55:35;-7.80;1.00
14053;DHT22;7101;51.600;7.310;2024-01-11T06:58:04;-7.80;93.50
14053;DHT22;7101;51.600;7.310;2024-01-11T07:00:32;-7.70;99.90
14053;DHT22;7101;51.600;7.310;2024-01-11T07:02:59;-7.60;99.90
14053;DHT22;7101;51.600;7.310;2024-01-11T07:05:26;-7.50;99.90
14053;DHT22;7101;51.600;7.310;2024-01-11T07:07:53;-7.50;99.90
14053;DHT22;7101;51.600;7.310;2024-01-11T07:10:20;-7.40;99.90
14053;DHT22;7101;51.600;7.310;2024-01-11T07:12:46;-7.30;99.90
14053;DHT22;7101;51.600;7.310;2024-01-11T07:15:13;-7.30;99.90
14053;DHT22;7101;51.600;7.310;2024-01-11T07:17:42;-7.20;99.90
14053;DHT22;7101;51.600;7.310;2024-01-11T07:20:10;-7.20;99.90
14053;DHT22;7101;51.600;7.310;2024-01-11T07:22:38;-7.20;99.90
14053;DHT22;7101;51.600;7.310;2024-01-11T07:25:05;-7.30;92.90
14053;DHT22;7101;51.600;7.310;2024-01-11T07:27:32;-7.30;10.00
14053;DHT22;7101;51.600;7.310;2024-01-11T07:30:00;-7.40;32.70
14053;DHT22;7101;51.600;7.310;2024-01-11T07:32:28;-7.40;1.00
14053;DHT22;7101;51.600;7.310;2024-01-11T07:34:56;-7.20;99.90
14053;DHT22;7101;51.600;7.310;2024-01-11T07:37:23;-7.20;1.00
14053;DHT22;7101;51.600;7.310;2024-01-11T07:39:51;-7.30;1.00
14053;DHT22;7101;51.600;7.310;2024-01-11T07:42:18;-7.30;1.00
14053;DHT22;7101;51.600;7.310;2024-01-11T07:44:45;-7.30;1.00
14053;DHT22;7101;51.600;7.310;2024-01-11T07:47:11;-7.30;1.00
14053;DHT22;7101;51.600;7.310;2024-01-11T07:49:38;-7.30;1.00
14053;DHT22;7101;51.600;7.310;2024-01-11T07:52:08;-7.30;1.00
14053;DHT22;7101;51.600;7.310;2024-01-11T07:54:35;-7.20;1.00
14053;DHT22;7101;51.600;7.310;2024-01-11T07:57:02;-7.20;1.00
14053;DHT22;7101;51.600;7.310;2024-01-11T07:59:32;-7.20;1.00
14053;DHT22;7101;51.600;7.310;2024-01-11T08:02:01;-7.20;1.00
14053;DHT22;7101;51.600;7.310;2024-01-11T08:04:30;-7.20;1.00
14053;DHT22;7101;51.600;7.310;2024-01-11T08:06:57;-7.10;1.00
14053;DHT22;7101;51.600;7.310;2024-01-11T08:09:26;-7.10;1.00
14053;DHT22;7101;51.600;7.310;2024-01-11T08:11:53;-7.00;6.70
14053;DHT22;7101;51.600;7.310;2024-01-11T08:14:20;-6.90;1.00
14053;DHT22;7101;51.600;7.310;2024-01-11T08:16:47;-6.90;6.00
14053;DHT22;7101;51.600;7.310;2024-01-11T08:19:13;-7.00;91.60
14053;DHT22;7101;51.600;7.310;2024-01-11T08:21:40;-6.90;98.40
14053;DHT22;7101;51.600;7.310;2024-01-11T08:24:08;-6.80;20.50
14053;DHT22;7101;51.600;7.310;2024-01-11T08:26:36;-6.70;1.00
14053;DHT22;7101;51.600;7.310;2024-01-11T08:29:03;-6.70;1.00
14053;DHT22;7101;51.600;7.310;2024-01-11T08:31:30;-6.60;1.00
14053;DHT22;7101;51.600;7.310;2024-01-11T08:33:58;-6.30;1.00
14053;DHT22;7101;51.600;7.310;2024-01-11T08:36:24;-6.20;1.00
14053;DHT22;7101;51.600;7.310;2024-01-11T08:38:56;-6.10;1.00
14053;DHT22;7101;51.600;7.310;2024-01-11T08:41:23;-6.00;1.00
14053;DHT22;7101;51.600;7.310;2024-01-11T08:43:51;-6.00;1.00
14053;DHT22;7101;51.600;7.310;2024-01-11T08:46:23;-5.90;1.00
14053;DHT22;7101;51.600;7.310;2024-01-11T08:48:51;-5.90;1.00
14053;DHT22;7101;51.600;7.310;2024-01-11T08:51:17;-5.90;1.00
14053;DHT22;7101;51.600;7.310;2024-01-11T08:53:44;-5.80;1.00
14053;DHT22;7101;51.600;7.310;2024-01-11T08:56:11;-5.80;1.00
14053;DHT22;7101;51.600;7.310;2024-01-11T08:58:39;-5.70;1.00
14053;DHT22;7101;51.600;7.310;2024-01-11T09:01:12;-5.60;1.00
14053;DHT22;7101;51.600;7.310;2024-01-11T09:03:39;-5.50;1.00
14053;DHT22;7101;51.600;7.310;2024-01-11T09:06:06;-5.40;1.00
14053;DHT22;7101;51.600;7.310;2024-01-11T09:08:32;-5.30;1.00
14053;DHT22;7101;51.600;7.310;2024-01-11T09:11:00;-5.30;1.00
14053;DHT22;7101;51.600;7.310;2024-01-11T09:13:27;-5.30;1.00
14053;DHT22;7101;51.600;7.310;2024-01-11T09:15:54;-5.20;99.90
14053;DHT22;7101;51.600;7.310;2024-01-11T09:18:22;-5.10;99.90
14053;DHT22;7101;51.600;7.310;2024-01-11T09:20:49;-5.10;99.90
14053;DHT22;7101;51.600;7.310;2024-01-11T09:23:16;-5.10;99.90
14053;DHT22;7101;51.600;7.310;2024-01-11T09:25:44;-5.00;99.90
14053;DHT22;7101;51.600;7.310;2024-01-11T09:28:11;-4.70;99.90
14053;DHT22;7101;51.600;7.310;2024-01-11T09:30:37;-4.70;99.90
14053;DHT22;7101;51.600;7.310;2024-01-11T09:33:04;-4.70;99.90
14053;DHT22;7101;51.600;7.310;2024-01-11T09:35:33;-4.60;99.90
14053;DHT22;7101;51.600;7.310;2024-01-11T09:37:59;-4.70;99.90
14053;DHT22;7101;51.600;7.310;2024-01-11T09:40:26;-4.60;99.90
14053;DHT22;7101;51.600;7.310;2024-01-11T09:42:53;-4.50;99.90
14053;DHT22;7101;51.600;7.310;2024-01-11T09:45:20;-4.30;99.90
14053;DHT22;7101;51.600;7.310;2024-01-11T09:47:48;-4.40;99.90
14053;DHT22;7101;51.600;7.310;2024-01-11T09:50:17;-4.20;99.90
14053;DHT22;7101;51.600;7.310;2024-01-11T09:52:47;-4.20;99.90
14053;DHT22;7101;51.600;7.310;2024-01-11T09:55:14;-4.20;99.90
14053;DHT22;7101;51.600;7.310;2024-01-11T09:57:44;-4.10;99.90
14053;DHT22;7101;51.600;7.310;2024-01-11T10:00:13;-4.00;99.90
14053;DHT22;7101;51.600;7.310;2024-01-11T10:02:44;-4.00;93.60
14053;DHT22;7101;51.600;7.310;2024-01-11T10:05:11;-3.90;99.90
14053;DHT22;7101;51.600;7.310;2024-01-11T10:07:39;-3.90;70.50
14053;DHT22;7101;51.600;7.310;2024-01-11T10:10:08;-3.90;1.00
14053;DHT22;7101;51.600;7.310;2024-01-11T10:12:36;-3.80;1.00
14053;DHT22;7101;51.600;7.310;2024-01-11T10:15:06;-3.80;1.00
14053;DHT22;7101;51.600;7.310;2024-01-11T10:17:35;-3.70;1.00
14053;DHT22;7101;51.600;7.310;2024-01-11T10:20:02;-3.60;1.00
14053;DHT22;7101;51.600;7.310;2024-01-11T10:22:30;-3.60;76.20
14053;DHT22;7101;51.600;7.310;2024-01-11T10:25:11;-3.60;1.00
14053;DHT22;7101;51.600;7.310;2024-01-11T10:27:40;-3.50;1.00
14053;DHT22;7101;51.600;7.310;2024-01-11T10:30:09;-3.40;1.00
14053;DHT22;7101;51.600;7.310;2024-01-11T10:32:38;-3.30;1.00
14053;DHT22;7101;51.600;7.310;2024-01-11T10:35:05;-3.20;1.00
14053;DHT22;7101;51.600;7.310;2024-01-11T10:37:32;-3.20;1.00
14053;DHT22;7101;51.600;7.310;2024-01-11T10:40:03;-3.20;1.00
14053;DHT22;7101;51.600;7.310;2024-01-11T10:42:36;-3.00;1.00
14053;DHT22;7101;51.600;7.310;2024-01-11T10:45:10;-3.00;99.90
14053;DHT22;7101;51.600;7.310;2024-01-11T10:47:45;-3.00;1.00
14053;DHT22;7101;51.600;7.310;2024-01-11T10:50:15;-2.90;1.00
14053;DHT22;7101;51.600;7.310;2024-01-11T10:52:53;-3.00;1.00
14053;DHT22;7101;51.600;7.310;2024-01-11T10:55:21;-2.90;1.00
14053;DHT22;7101;51.600;7.310;2024-01-11T10:57:51;-2.80;1.00
14053;DHT22;7101;51.600;7.310;2024-01-11T11:00:18;-2.80;1.00
14053;DHT22;7101;51.600;7.310;2024-01-11T11:02:47;-2.80;1.00
14053;DHT22;7101;51.600;7.310;2024-01-11T11:05:15;-2.70;1.00
14053;DHT22;7101;51.600;7.310;2024-01-11T11:07:42;-2.80;1.00
14053;DHT22;7101;51.600;7.310;2024-01-11T11:10:10;-2.60;1.00
14053;DHT22;7101;51.600;7.310;2024-01-11T11:12:40;-2.50;1.00
14053;DHT22;7101;51.600;7.310;2024-01-11T11:15:10;-2.40;1.00
14053;DHT22;7101;51.600;7.310;2024-01-11T11:17:38;-2.40;1.00
14053;DHT22;7101;51.600;7.310;2024-01-11T11:20:06;-2.30;99.90
14053;DHT22;7101;51.600;7.310;2024-01-11T11:22:34;-2.20;55.20
14053;DHT22;7101;51.600;7.310;2024-01-11T11:25:06;-2.20;1.00
14053;DHT22;7101;51.600;7.310;2024-01-11T11:27:33;-2.10;1.00
14053;DHT22;7101;51.600;7.310;2024-01-11T11:30:00;-2.00;1.00
14053;DHT22;7101;51.600;7.310;2024-01-11T11:32:37;-1.90;1.00
14053;DHT22;7101;51.600;7.310;2024-01-11T11:35:05;-2.00;1.00
14053;DHT22;7101;51.600;7.310;2024-01-11T11:37:36;-1.90;99.90
14053;DHT22;7101;51.600;7.310;2024-01-11T11:40:03;-1.90;99.90
14053;DHT22;7101;51.600;7.310;2024-01-11T11:42:31;-1.70;99.90
14053;DHT22;7101;51.600;7.310;2024-01-11T11:44:59;-1.70;99.90
14053;DHT22;7101;51.600;7.310;2024-01-11T11:47:33;-1.70;99.90
14053;DHT22;7101;51.600;7.310;2024-01-11T11:50:06;-1.70;99.90
14053;DHT22;7101;51.600;7.310;2024-01-11T11:52:35;-1.60;99.90
14053;DHT22;7101;51.600;7.310;2024-01-11T11:55:03;-1.70;99.90
14053;DHT22;7101;51.600;7.310;2024-01-11T11:57:30;-1.60;99.90
14053;DHT22;7101;51.600;7.310;2024-01-11T11:59:58;-1.50;1.00
14053;DHT22;7101;51.600;7.310;2024-01-11T12:02:26;-1.50;1.00
14053;DHT22;7101;51.600;7.310;2024-01-11T12:04:53;-1.50;1.00
14053;DHT22;7101;51.600;7.310;2024-01-11T12:07:22;-1.40;1.00
14053;DHT22;7101;51.600;7.310;2024-01-11T12:09:51;-1.50;1.00
14053;DHT22;7101;51.600;7.310;2024-01-11T12:12:17;-1.30;1.00
14053;DHT22;7101;51.600;7.310;2024-01-11T12:14:46;-1.20;1.00
14053;DHT22;7101;51.600;7.310;2024-01-11T12:17:13;-1.00;99.90
14053;DHT22;7101;51.600;7.310;2024-01-11T12:19:40;-1.00;1.00
14053;DHT22;7101;51.600;7.310;2024-01-11T12:22:07;-1.00;99.90
14053;DHT22;7101;51.600;7.310;2024-01-11T12:24:35;-0.90;1.00
14053;DHT22;7101;51.600;7.310;2024-01-11T12:27:02;-0.80;90.90
14053;DHT22;7101;51.600;7.310;2024-01-11T12:29:29;-0.80;99.90
14053;DHT22;7101;51.600;7.310;2024-01-11T12:31:57;-0.80;99.90
14053;DHT22;7101;51.600;7.310;2024-01-11T12:34:24;-0.80;99.90
14053;DHT22;7101;51.600;7.310;2024-01-11T12:36:52;-0.70;99.90
14053;DHT22;7101;51.600;7.310;2024-01-11T12:39:20;-0.60;1.00
14053;DHT22;7101;51.600;7.310;2024-01-11T12:41:49;-0.60;1.00
14053;DHT22;7101;51.600;7.310;2024-01-11T12:44:17;-0.60;1.00
14053;DHT22;7101;51.600;7.310;2024-01-11T12:46:47;-0.50;1.00
14053;DHT22;7101;51.600;7.310;2024-01-11T12:49:15;-0.60;1.00
14053;DHT22;7101;51.600;7.310;2024-01-11T12:51:42;-0.50;57.20
14053;DHT22;7101;51.600;7.310;2024-01-11T12:54:12;-0.50;1.00
14053;DHT22;7101;51.600;7.310;2024-01-11T12:56:42;-0.50;1.00
14053;DHT22;7101;51.600;7.310;2024-01-11T12:59:10;-0.40;1.00
14053;DHT22;7101;51.600;7.310;2024-01-11T13:01:38;-0.50;1.00
14053;DHT22;7101;51.600;7.310;2024-01-11T13:04:07;-0.50;1.00
14053;DHT22;7101;51.600;7.310;2024-01-11T13:06:35;-0.50;1.00
14053;DHT22;7101;51.600;7.310;2024-01-11T13:09:02;-0.40;1.00
14053;DHT22;7101;51.600;7.310;2024-01-11T13:11:29;-0.30;99.90
14053;DHT22;7101;51.600;7.310;2024-01-11T13:13:56;-0.40;1.00
14053;DHT22;7101;51.600;7.310;2024-01-11T13:16:28;-0.30;1.00
14053;DHT22;7101;51.600;7.310;2024-01-11T13:18:55;-0.40;1.00
14053;DHT22;7101;51.600;7.310;2024-01-11T13:21:22;-0.40;99.90
14053;DHT22;7101;51.600;7.310;2024-01-11T13:23:49;-0.40;19.20
14053;DHT22;7101;51.600;7.310;2024-01-11T13:26:15;-0.40;82.40
14053;DHT22;7101;51.600;7.310;2024-01-11T13:28:42;-0.50;99.90
14053;DHT22;7101;51.600;7.310;2024-01-11T13:31:09;-0.60;99.90
14053;DHT22;7101;51.600;7.310;2024-01-11T13:33:38;-0.50;99.90
14053;DHT22;7101;51.600;7.310;2024-01-11T13:36:06;-0.40;99.90
14053;DHT22;7101;51.600;7.310;2024-01-11T13:38:35;-0.40;99.90
14053;DHT22;7101;51.600;7.310;2024-01-11T13:41:02;-0.40;1.00
14053;DHT22;7101;51.600;7.310;2024-01-11T13:43:30;-0.40;1.00
14053;DHT22;7101;51.600;7.310;2024-01-11T13:45:57;-0.40;1.00
14053;DHT22;7101;51.600;7.310;2024-01-11T13:48:24;-0.50;22.80
14053;DHT22;7101;51.600;7.310;2024-01-11T13:50:52;-0.40;12.50
14053;DHT22;7101;51.600;7.310;2024-01-11T13:53:19;-0.40;1.00
14053;DHT22;7101;51.600;7.310;2024-01-11T13:55:45;-0.40;1.00
14053;DHT22;7101;51.600;7.310;2024-01-11T13:58:13;-0.30;1.00
14053;DHT22;7101;51.600;7.310;2024-01-11T14:00:41;-0.30;1.00
14053;DHT22;7101;51.600;7.310;2024-01-11T14:03:07;-0.40;1.00
14053;DHT22;7101;51.600;7.310;2024-01-11T14:05:36;-0.40;1.00
14053;DHT22;7101;51.600;7.310;2024-01-11T14:08:05;-0.40;1.00
14053;DHT22;7101;51.600;7.310;2024-01-11T14:10:33;-0.30;1.00
14053;DHT22;7101;51.600;7.310;2024-01-11T14:13:00;-0.20;1.00
14053;DHT22;7101;51.600;7.310;2024-01-11T14:15:27;-0.20;1.00
14053;DHT22;7101;51.600;7.310;2024-01-11T14:17:54;-0.20;1.00
14053;DHT22;7101;51.600;7.310;2024-01-11T14:20:21;-0.20;1.00
14053;DHT22;7101;51.600;7.310;2024-01-11T14:22:51;-0.20;1.00
14053;DHT22;7101;51.600;7.310;2024-01-11T14:25:23;-0.20;1.00
14053;DHT22;7101;51.600;7.310;2024-01-11T14:27:50;-0.30;1.00
14053;DHT22;7101;51.600;7.310;2024-01-11T14:30:18;-0.30;1.00
14053;DHT22;7101;51.600;7.310;2024-01-11T14:32:45;-0.20;1.00
14053;DHT22;7101;51.600;7.310;2024-01-11T14:35:12;-0.10;1.00
14053;DHT22;7101;51.600;7.310;2024-01-11T14:37:39;-0.10;99.90
14053;DHT22;7101;51.600;7.310;2024-01-11T14:40:08;0.00;99.90
14053;DHT22;7101;51.600;7.310;2024-01-11T14:42:37;0.00;1.00
14053;DHT22;7101;51.600;7.310;2024-01-11T14:45:05;0.10;1.00
14053;DHT22;7101;51.600;7.310;2024-01-11T14:47:32;0.20;99.90
14053;DHT22;7101;51.600;7.310;2024-01-11T14:49:59;0.30;99.90
14053;DHT22;7101;51.600;7.310;2024-01-11T14:52:26;0.30;99.90
14053;DHT22;7101;51.600;7.310;2024-01-11T14:54:53;0.40;1.00
14053;DHT22;7101;51.600;7.310;2024-01-11T14:57:19;0.40;1.00
14053;DHT22;7101;51.600;7.310;2024-01-11T14:59:48;0.20;1.00
14053;DHT22;7101;51.600;7.310;2024-01-11T15:02:15;0.10;99.90
14053;DHT22;7101;51.600;7.310;2024-01-11T15:04:42;0.00;99.90
14053;DHT22;7101;51.600;7.310;2024-01-11T15:07:08;-0.10;99.90
14053;DHT22;7101;51.600;7.310;2024-01-11T15:09:35;-0.20;99.90
14053;DHT22;7101;51.600;7.310;2024-01-11T15:12:02;-0.20;1.00
14053;DHT22;7101;51.600;7.310;2024-01-11T15:14:29;-0.30;1.00
14053;DHT22;7101;51.600;7.310;2024-01-11T15:16:57;-0.30;99.90
14053;DHT22;7101;51.600;7.310;2024-01-11T15:19:24;-0.20;99.90
14053;DHT22;7101;51.600;7.310;2024-01-11T15:21:51;-0.20;99.90
14053;DHT22;7101;51.600;7.310;2024-01-11T15:24:19;-0.30;99.90
14053;DHT22;7101;51.600;7.310;2024-01-11T15:26:46;-0.30;1.00
14053;DHT22;7101;51.600;7.310;2024-01-11T15:29:13;-0.40;1.00
14053;DHT22;7101;51.600;7.310;2024-01-11T15:31:41;-0.40;1.00
14053;DHT22;7101;51.600;7.310;2024-01-11T15:34:13;-0.30;1.00
14053;DHT22;7101;51.600;7.310;2024-01-11T15:36:40;-0.40;1.00
14053;DHT22;7101;51.600;7.310;2024-01-11T15:39:07;-0.40;1.00
14053;DHT22;7101;51.600;7.310;2024-01-11T15:41:34;-0.30;1.00
14053;DHT22;7101;51.600;7.310;2024-01-11T15:44:04;-0.30;1.00
14053;DHT22;7101;51.600;7.310;2024-01-11T15:46:29;-0.40;1.00
14053;DHT22;7101;51.600;7.310;2024-01-11T15:48:56;-0.40;1.00
14053;DHT22;7101;51.600;7.310;2024-01-11T15:51:25;-0.50;1.00
14053;DHT22;7101;51.600;7.310;2024-01-11T15:53:54;-0.40;25.90
14053;DHT22;7101;51.600;7.310;2024-01-11T15:56:21;-0.30;27.60
14053;DHT22;7101;51.600;7.310;2024-01-11T15:58:47;-0.30;38.50